createdAt,value
2018-11-02T00:01:44.070Z,4.93
2018-11-02T00:04:18.298Z,4.87
2018-11-02T00:06:52.607Z,5.30
2018-11-02T00:09:26.705Z,5.13
2018-11-02T00:12:00.845Z,5.50
2018-11-02T00:14:34.954Z,5.80
2018-11-02T00:17:09.072Z,5.30
2018-11-02T00:19:43.294Z,5.33
2018-11-02T00:22:17.404Z,5.47
2018-11-02T00:24:51.502Z,5.47
2018-11-02T00:27:25.609Z,5.37
2018-11-02T00:29:59.963Z,5.60
2018-11-02T00:32:34.087Z,5.63
2018-11-02T00:35:08.723Z,5.87
2018-11-02T00:37:43.073Z,5.73
2018-11-02T00:40:17.202Z,5.40
2018-11-02T00:42:51.336Z,6.23
2018-11-02T00:45:25.442Z,5.60
2018-11-02T00:47:59.666Z,5.47
2018-11-02T00:50:33.954Z,5.43
2018-11-02T00:53:08.076Z,5.73
2018-11-02T00:55:42.178Z,6.17
2018-11-02T00:58:16.318Z,5.23
2018-11-02T01:00:50.666Z,6.37
2018-11-02T01:03:24.891Z,5.87
2018-11-02T01:05:59.034Z,5.60
2018-11-02T01:08:33.274Z,6.33
2018-11-02T01:11:07.602Z,5.90
2018-11-02T01:13:41.874Z,5.70
2018-11-02T01:16:16.212Z,6.40
2018-11-02T01:18:50.465Z,5.63
2018-11-02T01:21:24.610Z,6.50
2018-11-02T01:23:58.729Z,5.87
2018-11-02T01:26:33.041Z,5.53
2018-11-02T01:29:07.282Z,5.07
2018-11-02T01:31:41.501Z,5.40
2018-11-02T01:34:15.850Z,5.27
2018-11-02T01:36:50.088Z,5.87
2018-11-02T01:39:24.226Z,5.53
2018-11-02T01:41:58.442Z,5.03
2018-11-02T01:44:33.200Z,5.77
2018-11-02T01:47:07.650Z,5.20
2018-11-02T01:49:41.761Z,4.63
2018-11-02T01:52:15.866Z,4.73
2018-11-02T01:54:49.989Z,4.60
2018-11-02T01:57:24.102Z,5.30
2018-11-02T01:59:58.413Z,4.93
2018-11-02T02:02:32.530Z,4.93
2018-11-02T02:05:07.090Z,4.60
2018-11-02T02:07:41.214Z,4.87
2018-11-02T02:10:15.495Z,4.20
2018-11-02T02:12:49.685Z,4.23
2018-11-02T02:15:23.923Z,4.17
2018-11-02T02:17:58.270Z,3.93
2018-11-02T02:20:32.597Z,4.47
2018-11-02T02:23:06.706Z,4.23
2018-11-02T02:25:40.798Z,3.97
2018-11-02T02:28:14.932Z,3.67
2018-11-02T02:30:49.062Z,3.73
2018-11-02T02:33:23.356Z,3.73
2018-11-02T02:35:57.671Z,4.20
2018-11-02T02:38:31.934Z,3.97
2018-11-02T02:41:06.099Z,4.30
2018-11-02T02:43:40.233Z,4.50
2018-11-02T02:46:14.427Z,4.43
2018-11-02T02:48:48.714Z,4.77
2018-11-02T02:51:22.839Z,5.00
2018-11-02T02:53:56.993Z,4.70
2018-11-02T02:56:31.218Z,4.83
2018-11-02T02:59:05.394Z,4.30
2018-11-02T03:01:39.570Z,4.73
2018-11-02T03:04:13.797Z,4.70
2018-11-02T03:06:48.039Z,4.67
2018-11-02T03:09:22.159Z,4.67
2018-11-02T03:11:56.294Z,4.30
2018-11-02T03:14:30.449Z,4.30
2018-11-02T03:17:04.809Z,4.63
2018-11-02T03:19:38.926Z,4.37
2018-11-02T03:22:13.055Z,4.10
2018-11-02T03:24:47.165Z,10.97
2018-11-02T03:27:21.392Z,17.43
2018-11-02T03:29:55.738Z,3.70
2018-11-02T03:32:29.878Z,7.00
2018-11-02T03:35:04.014Z,9.23
2018-11-02T03:37:38.396Z,3.53
2018-11-02T03:40:12.646Z,4.60
2018-11-02T03:42:46.762Z,3.43
2018-11-02T03:45:21.097Z,2.87
2018-11-02T03:47:55.225Z,2.90
2018-11-02T03:50:29.542Z,2.40
2018-11-02T03:53:03.786Z,2.57
2018-11-02T03:55:38.058Z,2.20
2018-11-02T03:58:12.237Z,2.60
2018-11-02T04:00:46.619Z,3.50
2018-11-02T04:03:20.742Z,2.37
2018-11-02T04:05:55.043Z,3.07
2018-11-02T04:08:29.151Z,2.10
2018-11-02T04:11:03.290Z,2.43
2018-11-02T04:13:37.434Z,2.70
2018-11-02T04:16:11.573Z,2.33
2018-11-02T04:18:45.890Z,2.20
2018-11-02T04:21:20.104Z,2.20
2018-11-02T04:23:54.313Z,2.50
2018-11-02T04:26:28.649Z,2.20
2018-11-02T04:29:02.761Z,2.10
2018-11-02T04:31:37.079Z,1.90
2018-11-02T04:34:11.355Z,2.20
2018-11-02T04:36:45.591Z,2.00
2018-11-02T04:39:19.703Z,2.20
2018-11-02T04:41:53.932Z,2.33
2018-11-02T04:44:28.033Z,2.00
2018-11-02T04:47:02.274Z,2.00
2018-11-02T04:49:36.381Z,2.03
2018-11-02T04:52:10.717Z,1.97
2018-11-02T04:54:45.055Z,2.35
2018-11-02T04:57:19.170Z,2.10
2018-11-02T04:59:53.513Z,1.97
2018-11-02T05:02:27.738Z,2.03
2018-11-02T05:05:01.899Z,2.33
2018-11-02T05:07:35.990Z,2.20
2018-11-02T05:10:10.514Z,2.30
2018-11-02T05:12:44.874Z,2.17
2018-11-02T05:15:19.107Z,2.07
2018-11-02T05:17:53.239Z,2.53
2018-11-02T05:20:27.426Z,2.63
2018-11-02T05:23:01.722Z,3.00
2018-11-02T05:25:35.849Z,2.63
2018-11-02T05:28:09.954Z,2.90
2018-11-02T05:30:44.095Z,2.90
2018-11-02T05:33:18.274Z,2.53
2018-11-02T05:35:52.392Z,2.77
2018-11-02T05:38:26.493Z,2.90
2018-11-02T05:41:00.627Z,3.10
2018-11-02T05:43:34.721Z,2.90
2018-11-02T05:46:09.030Z,3.07
2018-11-02T05:48:43.140Z,3.17
2018-11-02T05:51:17.386Z,3.43
2018-11-02T05:53:51.622Z,3.60
2018-11-02T05:56:25.820Z,3.83
2018-11-02T05:58:59.922Z,3.63
2018-11-02T06:01:34.221Z,3.70
2018-11-02T06:04:08.457Z,3.97
2018-11-02T06:06:42.714Z,3.60
2018-11-02T06:09:16.918Z,3.73
2018-11-02T06:11:51.126Z,4.40
2018-11-02T06:14:25.323Z,4.40
2018-11-02T06:16:59.530Z,4.03
2018-11-02T06:19:33.573Z,4.07
2018-11-02T06:22:07.674Z,4.47
2018-11-02T06:24:41.910Z,4.40
2018-11-02T06:27:16.018Z,4.77
2018-11-02T06:29:50.225Z,4.27
2018-11-02T06:32:24.554Z,4.97
2018-11-02T06:34:58.650Z,4.90
2018-11-02T06:37:32.782Z,4.47
2018-11-02T06:40:07.245Z,4.70
2018-11-02T06:42:41.497Z,4.30
2018-11-02T06:45:15.628Z,5.30
2018-11-02T06:47:49.717Z,5.00
2018-11-02T06:50:24.046Z,4.97
2018-11-02T06:52:58.386Z,5.73
2018-11-02T06:55:32.498Z,6.10
2018-11-02T06:58:06.737Z,6.13
2018-11-02T07:00:40.846Z,5.97
2018-11-02T07:03:15.166Z,6.27
2018-11-02T07:05:49.393Z,6.67
2018-11-02T07:08:23.570Z,7.50
2018-11-02T07:10:57.786Z,8.13
2018-11-02T07:13:32.042Z,7.07
2018-11-02T07:16:06.463Z,6.90
2018-11-02T07:18:40.726Z,7.40
2018-11-02T07:21:15.054Z,8.23
2018-11-02T07:23:49.293Z,7.40
2018-11-02T07:26:23.762Z,9.90
2018-11-02T07:28:57.918Z,8.97
2018-11-02T07:31:32.168Z,10.80
2018-11-02T07:34:06.815Z,8.90
2018-11-02T07:36:41.016Z,12.27
2018-11-02T07:39:15.127Z,11.50
2018-11-02T07:41:49.475Z,9.33
2018-11-02T07:44:23.598Z,11.67
2018-11-02T07:46:58.641Z,9.30
2018-11-02T07:49:32.866Z,9.80
2018-11-02T07:52:06.938Z,10.00
2018-11-02T07:54:41.140Z,11.07
2018-11-02T07:57:15.269Z,12.87
2018-11-02T07:59:49.622Z,10.37
2018-11-02T08:02:23.950Z,11.37
2018-11-02T08:04:58.187Z,10.37
2018-11-02T08:07:32.435Z,13.10
2018-11-02T08:10:06.839Z,11.10
2018-11-02T08:12:40.974Z,10.80
2018-11-02T08:15:15.346Z,10.10
2018-11-02T08:17:49.659Z,10.83
2018-11-02T08:20:23.726Z,11.30
2018-11-02T08:22:57.846Z,12.33
2018-11-02T08:25:32.159Z,12.03
2018-11-02T08:28:06.514Z,12.80
2018-11-02T08:30:40.898Z,14.93
2018-11-02T08:33:15.158Z,14.47
2018-11-02T08:35:49.449Z,12.80
2018-11-02T08:38:23.583Z,10.90
2018-11-02T08:40:57.931Z,11.53
2018-11-02T08:43:32.265Z,13.00
2018-11-02T08:46:06.542Z,12.53
2018-11-02T08:48:40.790Z,12.07
2018-11-02T08:51:15.031Z,12.93
2018-11-02T08:53:49.310Z,12.80
2018-11-02T08:56:23.575Z,13.97
2018-11-02T08:58:57.955Z,14.03
2018-11-02T09:01:32.246Z,14.10
2018-11-02T09:04:06.650Z,14.10
2018-11-02T09:06:40.905Z,12.57
2018-11-02T09:09:15.151Z,14.23
2018-11-02T09:11:49.476Z,12.87
2018-11-02T09:14:23.618Z,13.60
2018-11-02T09:16:57.871Z,13.57
2018-11-02T09:19:32.301Z,11.73
2018-11-02T09:22:06.362Z,11.30
2018-11-02T09:24:40.570Z,11.53
2018-11-02T09:27:14.792Z,10.40
2018-11-02T09:29:49.034Z,10.37
2018-11-02T09:32:23.303Z,9.93
2018-11-02T09:34:57.505Z,8.70
2018-11-02T09:37:31.741Z,9.47
2018-11-02T09:40:07.002Z,9.87
2018-11-02T09:42:41.312Z,9.37
2018-11-02T09:45:15.554Z,9.30
2018-11-02T09:47:49.690Z,10.87
2018-11-02T09:50:23.918Z,10.40
2018-11-02T09:52:58.198Z,11.73
2018-11-02T09:55:32.546Z,9.83
2018-11-02T09:58:06.870Z,13.40
2018-11-02T10:00:41.213Z,10.50
2018-11-02T10:03:15.476Z,10.37
2018-11-02T10:05:49.741Z,11.17
2018-11-02T10:08:23.907Z,11.13
2018-11-02T10:10:58.098Z,7.40
2018-11-02T10:13:32.226Z,6.40
2018-11-02T10:16:06.763Z,6.67
2018-11-02T10:18:40.974Z,7.03
2018-11-02T10:21:15.809Z,7.37
2018-11-02T10:23:50.065Z,7.47
2018-11-02T10:26:24.150Z,6.67
2018-11-02T10:28:58.406Z,7.47
2018-11-02T10:31:32.611Z,7.87
2018-11-02T10:34:06.974Z,9.90
2018-11-02T10:36:41.347Z,8.67
2018-11-02T10:39:15.494Z,9.03
2018-11-02T10:41:52.218Z,9.20
2018-11-02T10:44:30.859Z,9.90
2018-11-02T10:47:05.938Z,9.20
2018-11-02T10:49:40.077Z,9.70
2018-11-02T10:52:14.309Z,8.93
2018-11-02T10:54:48.441Z,9.57
2018-11-02T10:57:22.645Z,9.50
2018-11-02T10:59:56.932Z,8.60
2018-11-02T11:02:36.883Z,8.33
2018-11-02T11:05:11.131Z,11.03
2018-11-02T11:07:45.325Z,9.53
2018-11-02T11:10:19.438Z,7.77
2018-11-02T11:12:53.831Z,8.50
2018-11-02T11:15:27.785Z,7.83
2018-11-02T11:18:01.945Z,8.00
2018-11-02T11:20:36.203Z,8.30
2018-11-02T11:23:10.311Z,7.97
2018-11-02T11:25:44.564Z,12.27
2018-11-02T11:28:18.759Z,6.77
2018-11-02T11:30:52.906Z,12.23
2018-11-02T11:33:27.106Z,7.03
2018-11-02T11:36:01.326Z,7.17
2018-11-02T11:38:35.637Z,6.97
2018-11-02T11:41:09.879Z,6.73
2018-11-02T11:43:44.102Z,6.27
2018-11-02T11:46:18.230Z,7.07
2018-11-02T11:48:52.464Z,6.67
2018-11-02T11:51:26.670Z,6.87
2018-11-02T11:54:00.798Z,6.60
2018-11-02T11:56:34.917Z,7.27
2018-11-02T11:59:09.073Z,6.77
2018-11-02T12:01:43.433Z,6.43
2018-11-02T12:04:17.717Z,6.10
2018-11-02T12:06:51.830Z,6.60
2018-11-02T12:09:26.097Z,5.53
2018-11-02T12:12:00.339Z,5.90
2018-11-02T12:14:34.593Z,6.20
2018-11-02T12:17:08.706Z,6.23
2018-11-02T12:19:42.826Z,5.87
2018-11-02T12:22:17.130Z,6.10
2018-11-02T12:24:51.254Z,6.10
2018-11-02T12:27:25.359Z,6.63
2018-11-02T12:29:59.509Z,6.43
2018-11-02T12:32:33.786Z,6.53
2018-11-02T12:35:09.243Z,6.23
2018-11-02T12:37:43.459Z,3.97
2018-11-02T12:40:19.026Z,6.10
2018-11-02T12:42:54.242Z,6.17
2018-11-02T12:45:28.349Z,4.53
2018-11-02T12:48:02.559Z,5.40
2018-11-02T12:50:36.704Z,5.97
2018-11-02T12:53:10.752Z,5.43
2018-11-02T12:55:44.885Z,5.60
2018-11-02T12:58:19.110Z,5.90
2018-11-02T13:00:53.442Z,5.50
2018-11-02T13:03:27.637Z,5.73
2018-11-02T13:06:01.770Z,4.93
2018-11-02T13:08:35.949Z,5.03
2018-11-02T13:11:10.073Z,5.00
2018-11-02T13:13:44.401Z,5.53
2018-11-02T13:16:18.631Z,5.10
2018-11-02T13:18:52.912Z,4.67
2018-11-02T13:21:26.992Z,4.60
2018-11-02T13:24:01.111Z,4.70
2018-11-02T13:26:35.377Z,3.53
2018-11-02T13:29:09.934Z,3.80
2018-11-02T13:31:44.368Z,4.00
2018-11-02T13:34:18.595Z,3.97
2018-11-02T13:36:52.878Z,4.27
2018-11-02T13:39:27.142Z,4.30
2018-11-02T13:42:01.398Z,4.10
2018-11-02T13:44:35.503Z,4.33
2018-11-02T13:47:09.760Z,4.50
2018-11-02T13:49:43.875Z,4.87
2018-11-02T13:52:18.133Z,4.93
2018-11-02T13:54:52.385Z,5.33
2018-11-02T13:57:26.722Z,5.10
2018-11-02T14:00:00.877Z,4.20
2018-11-02T14:02:34.977Z,3.47
2018-11-02T14:05:11.124Z,3.63
2018-11-02T14:07:45.237Z,4.33
2018-11-02T14:10:19.418Z,3.90
2018-11-02T14:12:53.763Z,4.00
2018-11-02T14:15:27.894Z,3.90
2018-11-02T14:18:02.018Z,3.40
2018-11-02T14:20:36.221Z,4.13
2018-11-02T14:23:10.330Z,3.50
2018-11-02T14:25:44.441Z,3.70
2018-11-02T14:28:18.694Z,3.67
2018-11-02T14:30:52.809Z,4.67
2018-11-02T14:33:26.942Z,4.47
2018-11-02T14:36:01.182Z,3.57
2018-11-02T14:38:35.539Z,3.50
2018-11-02T14:41:09.859Z,3.53
2018-11-02T14:43:44.053Z,4.10
2018-11-02T14:46:18.433Z,4.00
2018-11-02T14:48:52.561Z,3.60
2018-11-02T14:51:26.794Z,4.20
2018-11-02T14:54:01.045Z,4.80
2018-11-02T14:56:35.282Z,5.27
2018-11-02T14:59:09.466Z,5.37
2018-11-02T15:01:43.561Z,3.73
2018-11-02T15:04:17.698Z,3.93
2018-11-02T15:06:52.047Z,4.00
2018-11-02T15:09:26.282Z,3.30
2018-11-02T15:12:00.442Z,3.63
2018-11-02T15:14:34.729Z,3.57
2018-11-02T15:17:09.041Z,3.33
2018-11-02T15:19:43.741Z,3.40
2018-11-02T15:22:17.919Z,3.20
2018-11-02T15:24:52.118Z,3.30
2018-11-02T15:27:26.249Z,3.47
2018-11-02T15:30:00.382Z,2.50
2018-11-02T15:32:34.506Z,2.57
2018-11-02T15:35:09.164Z,2.00
2018-11-02T15:37:43.646Z,2.10
2018-11-02T15:40:17.962Z,2.10
2018-11-02T15:42:52.310Z,2.03
2018-11-02T15:45:26.429Z,1.80
2018-11-02T15:48:00.682Z,1.90
2018-11-02T15:50:37.278Z,1.60
2018-11-02T15:53:11.546Z,1.90
2018-11-02T15:55:45.654Z,1.67
2018-11-02T15:58:19.806Z,1.80
2018-11-02T16:00:53.950Z,1.70
2018-11-02T16:03:29.439Z,1.80
2018-11-02T16:06:03.661Z,1.70
2018-11-02T16:08:39.914Z,1.70
2018-11-02T16:11:14.089Z,3.97
2018-11-02T16:13:48.313Z,2.53
2018-11-02T16:16:22.638Z,3.63
2018-11-02T16:18:56.814Z,3.25
2018-11-02T16:21:31.017Z,2.67
2018-11-02T16:24:05.487Z,2.70
2018-11-02T16:26:40.602Z,11.47
2018-11-02T16:29:14.990Z,4.60
2018-11-02T16:31:49.098Z,20.70
2018-11-02T16:34:23.484Z,32.63
2018-11-02T16:36:57.654Z,23.77
2018-11-02T16:39:32.010Z,15.47
2018-11-02T16:42:06.362Z,6.40
2018-11-02T16:44:40.723Z,3.60
2018-11-02T16:47:14.887Z,3.47
2018-11-02T16:49:49.275Z,3.03
2018-11-02T16:52:23.519Z,12.13
2018-11-02T16:54:57.778Z,8.53
2018-11-02T16:57:32.075Z,6.47
2018-11-02T17:00:09.106Z,6.03
2018-11-02T17:02:44.086Z,5.07
2018-11-02T17:05:18.554Z,4.90
2018-11-02T17:07:52.790Z,5.00
2018-11-02T17:10:26.974Z,4.30
2018-11-02T17:13:01.291Z,4.13
2018-11-02T17:15:35.425Z,3.83
2018-11-02T17:18:09.753Z,3.67
2018-11-02T17:20:44.042Z,3.53
2018-11-02T17:23:18.235Z,2.30
2018-11-02T17:25:52.414Z,2.40
2018-11-02T17:28:26.620Z,2.27
2018-11-02T17:31:00.910Z,3.57
2018-11-02T17:33:35.306Z,2.27
2018-11-02T17:36:09.430Z,2.20
2018-11-02T17:38:43.531Z,2.63
2018-11-02T17:41:17.881Z,2.67
2018-11-02T17:43:52.089Z,2.67
2018-11-02T17:46:26.187Z,2.77
2018-11-02T17:49:00.502Z,3.40
2018-11-02T17:51:34.823Z,2.80
2018-11-02T17:54:09.067Z,4.27
2018-11-02T17:56:43.310Z,3.10
2018-11-02T17:59:17.500Z,3.33
2018-11-02T18:01:51.567Z,3.17
2018-11-02T18:04:25.773Z,2.67
2018-11-02T18:07:00.018Z,2.63
2018-11-02T18:09:34.118Z,2.60
2018-11-02T18:12:08.446Z,2.90
2018-11-02T18:14:42.707Z,3.00
2018-11-02T18:17:17.033Z,3.53
2018-11-02T18:19:51.195Z,16.17
2018-11-02T18:22:25.447Z,13.30
2018-11-02T18:24:59.629Z,11.50
2018-11-02T18:27:33.759Z,26.47
2018-11-02T18:30:08.767Z,46.43
2018-11-02T18:32:42.890Z,9.53
2018-11-02T18:35:17.160Z,8.40
2018-11-02T18:37:51.311Z,5.00
2018-11-02T18:40:25.549Z,5.07
2018-11-02T18:42:59.676Z,5.17
2018-11-02T18:45:33.803Z,3.93
2018-11-02T18:48:08.042Z,4.67
2018-11-02T18:50:42.270Z,4.30
2018-11-02T18:53:16.504Z,3.93
2018-11-02T18:55:50.626Z,4.07
2018-11-02T18:58:24.743Z,4.00
2018-11-02T19:00:58.870Z,5.10
2018-11-02T19:03:33.070Z,6.63
2018-11-02T19:06:07.202Z,5.10
2018-11-02T19:08:41.514Z,5.00
2018-11-02T19:11:15.665Z,4.90
2018-11-02T19:13:49.922Z,4.90
2018-11-02T19:16:24.155Z,4.60
2018-11-02T19:18:58.268Z,4.30
2018-11-02T19:21:32.714Z,5.00
2018-11-02T19:24:06.845Z,4.20
2018-11-02T19:26:41.055Z,4.67
2018-11-02T19:29:15.158Z,4.47
2018-11-02T19:31:49.467Z,5.00
2018-11-02T19:34:24.082Z,5.20
2018-11-02T19:36:58.267Z,5.07
2018-11-02T19:39:32.366Z,4.73
2018-11-02T19:42:06.474Z,5.20
2018-11-02T19:44:40.706Z,5.37
2018-11-02T19:47:14.826Z,5.80
2018-11-02T19:49:49.192Z,5.30
2018-11-02T19:52:23.317Z,5.20
2018-11-02T19:54:57.443Z,5.20
2018-11-02T19:57:31.753Z,5.63
2018-11-02T20:00:07.590Z,5.70
2018-11-02T20:02:42.247Z,5.97
2018-11-02T20:05:17.622Z,5.80
2018-11-02T20:07:51.971Z,5.67
2018-11-02T20:10:44.624Z,5.40
2018-11-02T20:13:18.930Z,5.90
2018-11-02T20:15:53.164Z,6.77
2018-11-02T20:18:27.405Z,12.50
2018-11-02T20:21:01.635Z,10.47
2018-11-02T20:23:35.754Z,8.20
2018-11-02T20:26:09.918Z,15.27
2018-11-02T20:28:44.221Z,16.50
2018-11-02T20:31:18.430Z,10.67
2018-11-02T20:33:52.702Z,8.50
2018-11-02T20:36:26.921Z,8.17
2018-11-02T20:39:01.257Z,8.73
2018-11-02T20:41:35.391Z,8.43
2018-11-02T20:44:09.646Z,7.80
2018-11-02T20:46:43.742Z,8.20
2018-11-02T20:49:17.953Z,8.03
2018-11-02T20:51:52.273Z,6.97
2018-11-02T20:54:26.505Z,6.57
2018-11-02T20:57:00.761Z,7.03
2018-11-02T20:59:34.966Z,6.70
2018-11-02T21:02:09.186Z,7.27
2018-11-02T21:04:43.311Z,6.77
2018-11-02T21:07:17.550Z,6.30
2018-11-02T21:09:51.610Z,6.67
2018-11-02T21:12:25.817Z,6.43
2018-11-02T21:15:00.039Z,6.63
2018-11-02T21:17:34.075Z,7.23
2018-11-02T21:20:10.506Z,7.03
2018-11-02T21:22:44.762Z,6.13
2018-11-02T21:25:18.859Z,6.50
2018-11-02T21:27:53.134Z,6.47
2018-11-02T21:30:27.290Z,6.93
2018-11-02T21:33:01.445Z,6.67
2018-11-02T21:35:35.757Z,6.87
2018-11-02T21:38:10.019Z,6.00
2018-11-02T21:40:44.185Z,7.33
2018-11-02T21:43:18.438Z,6.30
2018-11-02T21:45:52.542Z,6.83
2018-11-02T21:48:26.919Z,6.03
2018-11-02T21:51:14.475Z,6.90
2018-11-02T21:53:48.774Z,6.60
2018-11-02T21:56:23.453Z,6.77
2018-11-02T21:58:57.812Z,6.50
2018-11-02T22:01:32.307Z,7.13
2018-11-02T22:04:11.919Z,6.50
2018-11-02T22:06:46.094Z,6.33
2018-11-02T22:09:20.302Z,6.50
2018-11-02T22:11:54.629Z,6.53
2018-11-02T22:14:28.805Z,7.27
2018-11-02T22:17:02.909Z,6.87
2018-11-02T22:19:37.050Z,7.00
2018-11-02T22:22:11.158Z,6.27
2018-11-02T22:24:45.314Z,6.67
2018-11-02T22:27:19.617Z,7.17
2018-11-02T22:29:53.766Z,7.40
2018-11-02T22:32:27.949Z,7.47
2018-11-02T22:35:02.070Z,7.53
2018-11-02T22:37:42.101Z,6.50
2018-11-02T22:40:16.342Z,6.97
2018-11-02T22:42:50.646Z,6.93
2018-11-02T22:45:24.758Z,7.10
2018-11-02T22:48:04.190Z,7.50
2018-11-02T22:50:38.330Z,6.97
2018-11-02T22:53:12.442Z,6.90
2018-11-02T22:55:46.587Z,7.37
2018-11-02T22:58:20.815Z,7.00
2018-11-02T23:01:00.338Z,7.20
2018-11-02T23:03:34.461Z,6.80
2018-11-02T23:06:08.558Z,7.27
2018-11-02T23:08:42.717Z,7.60
2018-11-02T23:11:16.806Z,7.40
2018-11-02T23:13:50.953Z,7.47
2018-11-02T23:16:25.159Z,6.47
2018-11-02T23:18:59.286Z,6.73
2018-11-02T23:21:33.509Z,7.43
2018-11-02T23:24:07.674Z,6.43
2018-11-02T23:26:41.827Z,7.23
2018-11-02T23:29:16.098Z,7.20
2018-11-02T23:31:50.238Z,6.57
2018-11-02T23:34:24.462Z,7.00
2018-11-02T23:36:58.577Z,7.53
2018-11-02T23:39:32.690Z,7.37
2018-11-02T23:42:06.873Z,7.03
2018-11-02T23:44:41.151Z,7.80
2018-11-02T23:47:15.247Z,7.17
2018-11-02T23:49:49.417Z,7.00
2018-11-02T23:52:24.063Z,7.40
2018-11-02T23:54:58.310Z,7.60
2018-11-02T23:57:32.470Z,7.70
